Jasper, Arkansas
Current Conditions -  °F | °C
As of 7:53 AM on Sunday 25 Jan 2015 (Local Time) from KHRO Reporting Station
Broken Clouds Broken Clouds  
Wind Chill: 41°   Ceiling: 6500
Heat Index: 45°   Visibility: 10mi
Dew Point: 39°   Wind: 8mph
Humidity: 80%   Direction: 270°W
Pressure: 29.7"   Gusts: NA
Location:  36.01°N, 93.19°W
Report Text: KHRO 251353Z AUTO 27007KT 10SM FEW045 BKN065 07/04 A2970 RMK AO2 SLP055 T00720039
Loading
Personal Weather Stations






























Interactive Weather Map New forecast layout! Learn more

10-Day Weather Forecast

Advertisements
Track Severe Weather on mobile